createdAt,value
2022-09-14T00:03:07.337Z,14.59
2022-09-14T00:08:10.731Z,14.54
2022-09-14T00:13:14.841Z,14.61
2022-09-14T00:18:19.660Z,14.51
2022-09-14T00:23:22.420Z,14.38
2022-09-14T00:28:25.201Z,14.37
2022-09-14T00:33:29.291Z,14.34
2022-09-14T00:38:32.253Z,14.26
2022-09-14T00:43:51.972Z,14.25
2022-09-14T00:48:59.940Z,14.16
2022-09-14T00:54:03.570Z,14.22
2022-09-14T00:59:10.485Z,14.17
2022-09-14T01:04:14.635Z,14.15
2022-09-14T01:09:28.342Z,14.19
2022-09-14T01:14:36.061Z,14.26
2022-09-14T01:20:03.915Z,14.26
2022-09-14T01:25:16.880Z,14.14
2022-09-14T01:30:24.375Z,14.10
2022-09-14T01:35:31.987Z,14.12
2022-09-14T01:40:38.369Z,14.01
2022-09-14T01:45:47.243Z,14.06
2022-09-14T01:50:54.220Z,13.96
2022-09-14T01:56:02.102Z,13.88
2022-09-14T02:01:10.194Z,13.90
2022-09-14T02:06:20.753Z,13.84
2022-09-14T02:11:23.767Z,13.79
2022-09-14T02:16:28.359Z,13.72
2022-09-14T02:21:33.169Z,13.69
2022-09-14T02:26:37.249Z,13.47
2022-09-14T02:31:54.955Z,13.51
2022-09-14T02:37:03.050Z,13.48
2022-09-14T02:42:18.047Z,13.57
2022-09-14T02:47:27.139Z,13.62
2022-09-14T02:52:35.069Z,13.64
2022-09-14T02:58:06.974Z,13.57
2022-09-14T03:03:12.824Z,13.54
2022-09-14T03:08:16.000Z,13.54
2022-09-14T03:13:19.073Z,13.51
2022-09-14T03:18:23.143Z,13.50
2022-09-14T03:23:25.845Z,13.70
2022-09-14T03:28:28.564Z,13.57
2022-09-14T03:33:32.679Z,13.42
2022-09-14T03:38:35.406Z,13.42
2022-09-14T03:43:38.436Z,13.29
2022-09-14T03:48:43.131Z,13.23
2022-09-14T03:53:46.557Z,13.14
2022-09-14T03:58:50.208Z,13.17
2022-09-14T04:03:54.328Z,12.99
2022-09-14T04:08:57.136Z,12.90
2022-09-14T04:14:02.341Z,12.84
2022-09-14T04:19:06.454Z,13.13
2022-09-14T04:24:15.865Z,13.23
2022-09-14T04:29:18.990Z,13.31
2022-09-14T04:34:23.117Z,13.58
2022-09-14T04:39:26.308Z,13.65
2022-09-14T04:44:29.322Z,13.65
2022-09-14T04:49:33.511Z,13.72
2022-09-14T04:54:36.241Z,13.59
2022-09-14T04:59:38.993Z,13.62
2022-09-14T05:04:43.123Z,13.61
2022-09-14T05:09:45.969Z,13.69
2022-09-14T05:14:48.818Z,13.67
2022-09-14T05:19:53.666Z,13.86
2022-09-14T05:24:56.455Z,14.12
2022-09-14T05:29:59.210Z,13.94
2022-09-14T05:35:03.909Z,14.01
2022-09-14T05:40:08.713Z,14.10
2022-09-14T05:45:11.913Z,14.12
2022-09-14T05:50:16.423Z,13.92
2022-09-14T05:55:19.189Z,13.93
2022-09-14T06:00:22.573Z,14.24
2022-09-14T06:05:26.756Z,14.32
2022-09-14T06:10:29.560Z,14.47
2022-09-14T06:15:34.982Z,14.40
2022-09-14T06:20:39.405Z,14.70
2022-09-14T06:25:42.148Z,14.82
2022-09-14T06:30:45.195Z,14.75
2022-09-14T06:35:57.544Z,14.97
2022-09-14T06:41:01.750Z,15.28
2022-09-14T06:46:07.395Z,15.49
2022-09-14T06:51:20.166Z,15.59
2022-09-14T06:56:22.957Z,15.66
2022-09-14T07:01:26.780Z,16.03
2022-09-14T07:06:32.500Z,16.11
2022-09-14T07:11:35.606Z,16.30
2022-09-14T07:16:40.165Z,16.69
2022-09-14T07:21:44.813Z,17.69
2022-09-14T07:26:47.667Z,19.17
2022-09-14T07:31:52.718Z,20.63
2022-09-14T07:36:57.029Z,21.44
2022-09-14T07:42:01.776Z,22.30
2022-09-14T07:47:05.092Z,22.47
2022-09-14T07:52:09.509Z,20.67
2022-09-14T07:57:12.351Z,19.91
2022-09-14T08:02:31.085Z,19.06
2022-09-14T08:07:35.610Z,19.24
2022-09-14T08:12:38.629Z,20.00
2022-09-14T08:17:41.953Z,20.63
2022-09-14T08:22:49.271Z,21.16
2022-09-14T08:27:52.142Z,20.82
2022-09-14T08:32:58.886Z,19.97
2022-09-14T08:38:05.450Z,20.70
2022-09-14T08:43:11.681Z,20.57
2022-09-14T08:48:22.204Z,20.48
2022-09-14T08:53:27.075Z,20.98
2022-09-14T08:58:48.618Z,21.10
2022-09-14T09:04:06.008Z,21.75
2022-09-14T09:09:18.975Z,20.94
2022-09-14T09:14:28.367Z,20.68
2022-09-14T09:19:34.625Z,20.92
2022-09-14T09:24:42.962Z,20.85
2022-09-14T09:29:45.794Z,20.81
2022-09-14T09:34:49.817Z,20.76
2022-09-14T09:40:36.313Z,20.65
2022-09-14T09:45:58.710Z,20.83
2022-09-14T09:51:07.982Z,20.77
2022-09-14T09:56:18.854Z,20.84
2022-09-14T10:01:27.673Z,21.41
2022-09-14T10:06:30.669Z,20.76
2022-09-14T10:11:37.888Z,20.78
2022-09-14T10:16:42.057Z,20.70
2022-09-14T10:22:17.709Z,20.29
2022-09-14T10:27:38.030Z,20.63
2022-09-14T10:32:44.450Z,20.74
2022-09-14T10:37:58.049Z,21.08
2022-09-14T10:43:14.328Z,20.25
2022-09-14T10:48:31.978Z,19.92
2022-09-14T10:53:50.167Z,20.16
2022-09-14T10:59:24.005Z,20.47
2022-09-14T11:04:48.486Z,20.43
2022-09-14T11:10:01.904Z,20.65
2022-09-14T11:15:15.242Z,20.32
2022-09-14T11:20:26.619Z,20.32
2022-09-14T11:25:37.718Z,20.49
2022-09-14T11:30:47.168Z,19.78
2022-09-14T11:35:54.296Z,19.20
2022-09-14T11:41:03.230Z,19.32
2022-09-14T11:46:12.537Z,18.93
2022-09-14T11:51:22.493Z,18.96
2022-09-14T11:56:28.338Z,18.94
2022-09-14T12:01:36.874Z,19.03
2022-09-14T12:06:49.628Z,18.84
2022-09-14T12:11:54.968Z,19.19
2022-09-14T12:22:45.019Z,20.34
2022-09-14T12:27:51.785Z,20.37
2022-09-14T12:32:55.938Z,20.25
2022-09-14T12:37:59.005Z,20.72
2022-09-14T12:43:48.388Z,20.46
2022-09-14T12:49:02.727Z,20.17
2022-09-14T12:54:18.661Z,19.97
2022-09-14T12:59:25.802Z,20.72
2022-09-14T13:04:33.130Z,20.67
2022-09-14T13:09:38.597Z,20.74
2022-09-14T13:14:49.666Z,20.20
2022-09-14T13:19:59.011Z,19.32
2022-09-14T13:25:02.451Z,19.22
2022-09-14T13:30:08.150Z,19.34
2022-09-14T13:35:18.864Z,19.37
2022-09-14T13:40:25.113Z,19.14
2022-09-14T13:45:28.508Z,19.17
2022-09-14T13:50:34.797Z,19.22
2022-09-14T13:55:45.492Z,19.48
2022-09-14T14:00:58.225Z,20.13
2022-09-14T14:06:20.265Z,19.92
2022-09-14T14:11:29.999Z,20.57
2022-09-14T14:22:13.034Z,20.54
2022-09-14T14:44:53.958Z,19.96
2022-09-14T14:55:37.459Z,19.88
2022-09-14T15:01:05.621Z,20.00
2022-09-14T15:06:39.752Z,19.91
2022-09-14T15:11:45.765Z,20.22
2022-09-14T15:16:50.560Z,19.91
2022-09-14T15:22:02.490Z,19.53
2022-09-14T15:27:07.036Z,19.23
2022-09-14T15:32:10.016Z,19.38
2022-09-14T15:37:12.894Z,19.27
2022-09-14T15:42:17.838Z,19.27
2022-09-14T15:47:20.598Z,19.27
2022-09-14T15:52:23.638Z,19.03
2022-09-14T15:57:28.958Z,19.23
2022-09-14T16:02:31.849Z,18.96
2022-09-14T16:07:34.974Z,18.76
2022-09-14T16:12:39.171Z,18.63
2022-09-14T16:17:42.056Z,18.86
2022-09-14T16:22:44.887Z,18.88
2022-09-14T16:27:49.903Z,18.66
2022-09-14T16:32:53.003Z,18.46
2022-09-14T16:37:55.841Z,18.25
2022-09-14T16:43:00.150Z,18.22
2022-09-14T16:48:03.692Z,18.16
2022-09-14T16:53:06.533Z,17.89
2022-09-14T16:58:15.221Z,17.84
2022-09-14T17:03:18.239Z,17.68
2022-09-14T17:08:21.187Z,17.47
2022-09-14T17:13:26.230Z,17.25
2022-09-14T17:18:29.446Z,17.15
2022-09-14T17:23:32.707Z,17.06
2022-09-14T17:28:37.765Z,17.01
2022-09-14T17:33:40.620Z,17.06
2022-09-14T17:38:44.656Z,17.06
2022-09-14T17:43:53.543Z,16.97
2022-09-14T17:48:58.477Z,16.75
2022-09-14T17:54:02.838Z,16.55
2022-09-14T17:59:08.775Z,16.49
2022-09-14T18:04:13.268Z,16.35
2022-09-14T18:09:17.527Z,16.35
2022-09-14T18:14:21.683Z,16.25
2022-09-14T18:19:24.710Z,16.15
2022-09-14T18:24:27.682Z,16.13
2022-09-14T18:29:33.639Z,15.94
2022-09-14T18:34:36.919Z,15.87
2022-09-14T18:39:39.739Z,15.88
2022-09-14T18:44:45.195Z,15.83
2022-09-14T18:49:49.436Z,15.80
2022-09-14T18:54:52.662Z,15.83
2022-09-14T18:59:57.032Z,15.81
2022-09-14T19:04:59.882Z,15.89
2022-09-14T19:10:03.084Z,15.90
2022-09-14T19:15:08.202Z,15.70
2022-09-14T19:20:11.706Z,15.55
2022-09-14T19:25:14.726Z,15.51
2022-09-14T19:30:19.232Z,15.40
2022-09-14T19:35:23.367Z,15.31
2022-09-14T19:40:27.661Z,15.25
2022-09-14T19:45:32.098Z,15.15
2022-09-14T19:50:35.207Z,15.12
2022-09-14T19:55:38.099Z,15.05
2022-09-14T20:00:42.619Z,14.95
2022-09-14T20:05:45.492Z,14.81
2022-09-14T20:10:48.297Z,14.78
2022-09-14T20:15:52.654Z,14.81
2022-09-14T20:20:55.492Z,14.76
2022-09-14T20:26:03.835Z,14.68
2022-09-14T20:31:12.006Z,14.64
2022-09-14T20:36:16.049Z,14.55
2022-09-14T20:41:19.651Z,14.48
2022-09-14T20:46:25.620Z,14.40
2022-09-14T20:51:29.812Z,14.38
2022-09-14T20:56:35.231Z,14.31
2022-09-14T21:01:41.662Z,14.32
2022-09-14T21:06:47.701Z,14.31
2022-09-14T21:11:50.503Z,14.29
2022-09-14T21:16:56.739Z,14.26
2022-09-14T21:21:59.755Z,14.22
2022-09-14T21:27:02.537Z,14.20
2022-09-14T21:32:09.000Z,14.18
2022-09-14T21:37:12.193Z,14.14
2022-09-14T21:42:14.961Z,14.06
2022-09-14T21:47:19.126Z,13.93
2022-09-14T21:52:21.898Z,13.91
2022-09-14T21:57:24.899Z,13.89
2022-09-14T22:02:29.334Z,13.83
2022-09-14T22:07:32.125Z,13.82
2022-09-14T22:12:35.049Z,13.76
2022-09-14T22:17:39.268Z,13.80
2022-09-14T22:22:44.249Z,13.66
2022-09-14T22:27:47.094Z,13.65
2022-09-14T22:32:51.214Z,13.60
2022-09-14T22:37:53.986Z,13.62
2022-09-14T22:42:56.745Z,13.58
2022-09-14T22:48:02.370Z,13.60
2022-09-14T22:53:05.462Z,13.52
2022-09-14T22:58:08.665Z,13.63
2022-09-14T23:03:14.165Z,13.76
2022-09-14T23:08:17.044Z,13.74
2022-09-14T23:13:20.104Z,13.87
2022-09-14T23:18:24.216Z,13.96
2022-09-14T23:23:26.928Z,14.01
2022-09-14T23:28:29.883Z,14.05
2022-09-14T23:33:34.497Z,14.11
2022-09-14T23:38:37.281Z,14.19
2022-09-14T23:43:40.160Z,14.23
2022-09-14T23:48:44.960Z,14.27
2022-09-14T23:53:47.984Z,14.30
2022-09-14T23:58:50.957Z,14.06
